createdAt,value
2023-03-31T00:02:13.850Z,3.03
2023-03-31T00:04:52.626Z,3.43
2023-03-31T00:07:23.438Z,4.63
2023-03-31T00:09:50.221Z,3.93
2023-03-31T00:12:17.177Z,4.17
2023-03-31T00:14:44.454Z,3.83
2023-03-31T00:17:12.265Z,3.50
2023-03-31T00:19:41.874Z,2.70
2023-03-31T00:22:08.981Z,2.20
2023-03-31T00:24:35.769Z,2.57
2023-03-31T00:27:04.275Z,3.80
2023-03-31T00:29:33.729Z,3.53
2023-03-31T00:32:00.508Z,3.90
2023-03-31T00:34:27.632Z,3.47
2023-03-31T00:36:56.567Z,4.23
2023-03-31T00:39:24.851Z,4.33
2023-03-31T00:41:52.204Z,4.83
2023-03-31T00:44:25.471Z,4.47
2023-03-31T00:46:56.362Z,4.20
2023-03-31T00:49:37.519Z,4.77
2023-03-31T00:52:13.557Z,4.03
2023-03-31T00:54:42.340Z,3.53
2023-03-31T00:57:09.939Z,3.77
2023-03-31T00:59:46.048Z,4.03
2023-03-31T01:02:14.616Z,3.80
2023-03-31T01:04:54.933Z,3.93
2023-03-31T01:07:33.692Z,3.70
2023-03-31T01:10:03.831Z,3.00
2023-03-31T01:12:32.789Z,2.50
2023-03-31T01:15:00.109Z,2.80
2023-03-31T01:17:30.001Z,3.03
2023-03-31T01:20:25.911Z,3.40
2023-03-31T01:23:30.866Z,3.83
2023-03-31T01:26:03.714Z,3.07
2023-03-31T01:29:08.932Z,3.43
2023-03-31T01:32:22.115Z,4.10
2023-03-31T01:35:26.214Z,4.67
2023-03-31T01:38:15.372Z,3.80
2023-03-31T01:40:41.957Z,4.20
2023-03-31T01:43:29.417Z,4.20
2023-03-31T01:46:10.156Z,3.87
2023-03-31T01:48:39.307Z,3.97
2023-03-31T01:51:15.557Z,3.90
2023-03-31T01:53:54.947Z,3.77
2023-03-31T01:56:36.964Z,3.10
2023-03-31T01:59:14.593Z,3.03
2023-03-31T02:01:49.732Z,3.93
2023-03-31T02:04:16.385Z,4.00
2023-03-31T02:06:50.211Z,3.90
2023-03-31T02:09:22.227Z,4.60
2023-03-31T02:11:50.609Z,3.67
2023-03-31T02:14:22.518Z,4.30
2023-03-31T02:16:52.607Z,5.03
2023-03-31T02:19:21.625Z,3.97
2023-03-31T02:21:49.956Z,5.10
2023-03-31T02:24:20.065Z,4.47
2023-03-31T02:27:03.769Z,2.03
2023-03-31T02:29:30.888Z,1.43
2023-03-31T02:32:37.617Z,1.30
2023-03-31T02:35:07.116Z,1.40
2023-03-31T02:37:34.422Z,1.10
2023-03-31T02:40:08.983Z,1.83
2023-03-31T02:42:35.695Z,1.73
2023-03-31T02:45:05.436Z,1.53
2023-03-31T02:47:32.836Z,1.23
2023-03-31T02:50:01.791Z,1.60
2023-03-31T02:52:33.603Z,1.43
2023-03-31T02:55:09.034Z,2.23
2023-03-31T02:58:07.527Z,1.33
2023-03-31T03:00:52.733Z,1.30
2023-03-31T03:04:02.317Z,1.30
2023-03-31T03:06:55.092Z,1.10
2023-03-31T03:09:59.491Z,1.13
2023-03-31T03:12:38.120Z,1.53
2023-03-31T03:15:21.475Z,1.30
2023-03-31T03:17:49.365Z,1.20
2023-03-31T03:20:16.407Z,1.40
2023-03-31T03:22:43.485Z,1.30
2023-03-31T03:25:13.759Z,1.40
2023-03-31T03:27:40.932Z,1.30
2023-03-31T03:30:10.878Z,1.00
2023-03-31T03:32:37.668Z,1.87
2023-03-31T03:35:06.192Z,1.27
2023-03-31T03:37:32.856Z,1.30
2023-03-31T03:39:59.476Z,1.27
2023-03-31T03:42:26.073Z,1.43
2023-03-31T03:44:52.717Z,1.60
2023-03-31T03:47:19.352Z,1.53
2023-03-31T03:49:45.974Z,2.00
2023-03-31T03:52:12.583Z,1.60
2023-03-31T03:54:39.225Z,1.50
2023-03-31T03:57:07.385Z,1.40
2023-03-31T03:59:34.122Z,1.60
2023-03-31T04:02:00.737Z,1.20
2023-03-31T04:04:27.373Z,1.40
2023-03-31T04:06:54.063Z,2.03
2023-03-31T04:09:20.739Z,1.67
2023-03-31T04:11:47.415Z,1.70
2023-03-31T04:14:14.071Z,2.17
2023-03-31T04:16:40.843Z,4.57
2023-03-31T04:19:08.503Z,2.67
2023-03-31T04:21:35.373Z,1.13
2023-03-31T04:24:04.529Z,1.30
2023-03-31T04:26:43.309Z,1.40
2023-03-31T04:29:16.269Z,1.50
2023-03-31T04:31:43.510Z,1.30
2023-03-31T04:34:14.507Z,1.40
2023-03-31T04:36:49.749Z,1.60
2023-03-31T04:39:18.277Z,1.40
2023-03-31T04:41:45.542Z,1.80
2023-03-31T04:44:12.375Z,1.77
2023-03-31T04:46:39.039Z,1.80
2023-03-31T04:49:05.975Z,1.60
2023-03-31T04:51:32.776Z,1.27
2023-03-31T04:53:59.401Z,1.43
2023-03-31T04:56:26.783Z,1.53
2023-03-31T04:58:53.691Z,1.43
2023-03-31T05:01:20.673Z,1.50
2023-03-31T05:03:48.173Z,2.57
2023-03-31T05:06:18.214Z,3.27
2023-03-31T05:08:45.326Z,3.30
2023-03-31T05:11:11.966Z,3.33
2023-03-31T05:13:38.598Z,1.20
2023-03-31T05:16:14.655Z,2.23
2023-03-31T05:18:42.039Z,2.80
2023-03-31T05:21:17.722Z,1.43
2023-03-31T05:23:45.041Z,1.73
2023-03-31T05:26:12.182Z,1.97
2023-03-31T05:28:39.462Z,2.17
2023-03-31T05:31:07.471Z,3.20
2023-03-31T05:33:34.980Z,2.57
2023-03-31T05:36:02.322Z,2.33
2023-03-31T05:38:31.336Z,1.73
2023-03-31T05:40:58.342Z,2.57
2023-03-31T05:43:25.236Z,1.70
2023-03-31T05:45:51.936Z,1.60
2023-03-31T05:48:18.740Z,1.93
2023-03-31T05:50:45.935Z,1.57
2023-03-31T05:53:12.576Z,1.97
2023-03-31T05:55:39.560Z,1.00
2023-03-31T05:58:06.946Z,1.80
2023-03-31T06:00:34.056Z,1.47
2023-03-31T06:03:00.734Z,1.87
2023-03-31T06:05:27.806Z,2.47
2023-03-31T06:07:54.411Z,1.73
2023-03-31T06:10:21.094Z,1.87
2023-03-31T06:12:47.779Z,1.90
2023-03-31T06:15:14.472Z,2.00
2023-03-31T06:17:41.310Z,1.70
2023-03-31T06:20:23.944Z,1.50
2023-03-31T06:22:53.709Z,1.33
2023-03-31T06:25:20.381Z,1.70
2023-03-31T06:27:47.042Z,1.77
2023-03-31T06:30:13.812Z,1.63
2023-03-31T06:32:40.590Z,1.20
2023-03-31T06:35:07.572Z,1.33
2023-03-31T06:37:34.226Z,1.33
2023-03-31T06:40:00.856Z,2.40
2023-03-31T06:42:27.507Z,2.50
2023-03-31T06:44:55.839Z,1.57
2023-03-31T06:47:22.586Z,1.33
2023-03-31T06:49:49.593Z,2.03
2023-03-31T06:52:16.589Z,1.60
2023-03-31T06:54:43.333Z,1.90
2023-03-31T06:57:10.129Z,1.63
2023-03-31T06:59:36.906Z,1.67
2023-03-31T07:02:04.082Z,2.43
2023-03-31T07:04:30.685Z,1.50
2023-03-31T07:06:59.148Z,2.07
2023-03-31T07:09:25.793Z,1.83
2023-03-31T07:11:52.360Z,1.13
2023-03-31T07:14:19.019Z,1.90
2023-03-31T07:16:45.854Z,1.70
2023-03-31T07:19:12.837Z,1.90
2023-03-31T07:21:39.491Z,2.20
2023-03-31T07:24:06.333Z,2.03
2023-03-31T07:26:33.326Z,1.97
2023-03-31T07:29:00.426Z,1.93
2023-03-31T07:31:27.131Z,2.00
2023-03-31T07:33:53.741Z,1.90
2023-03-31T07:36:21.231Z,2.53
2023-03-31T07:38:49.719Z,2.87
2023-03-31T07:41:21.266Z,2.03
2023-03-31T07:43:49.438Z,2.40
2023-03-31T07:46:18.579Z,2.40
2023-03-31T07:48:46.706Z,2.70
2023-03-31T07:51:18.549Z,2.73
2023-03-31T07:53:46.075Z,2.30
2023-03-31T07:56:13.285Z,3.00
2023-03-31T07:58:40.067Z,2.10
2023-03-31T08:01:08.075Z,2.20
2023-03-31T08:03:34.963Z,2.50
2023-03-31T08:06:02.237Z,2.40
2023-03-31T08:08:28.868Z,2.40
2023-03-31T08:10:55.533Z,2.23
2023-03-31T08:13:22.179Z,2.43
2023-03-31T08:15:48.879Z,2.37
2023-03-31T08:18:16.592Z,1.93
2023-03-31T08:20:43.208Z,2.00
2023-03-31T08:23:11.619Z,2.03
2023-03-31T08:25:38.671Z,2.10
2023-03-31T08:28:06.925Z,2.37
2023-03-31T08:30:33.693Z,1.93
2023-03-31T08:33:00.607Z,2.67
2023-03-31T08:35:27.315Z,2.10
2023-03-31T08:37:53.937Z,2.03
2023-03-31T08:40:26.066Z,2.30
2023-03-31T08:43:08.811Z,2.37
2023-03-31T08:45:40.115Z,2.13
2023-03-31T08:48:37.631Z,2.07
2023-03-31T08:51:16.559Z,1.57
2023-03-31T08:53:49.818Z,1.83
2023-03-31T08:56:20.173Z,1.57
2023-03-31T08:58:50.103Z,1.77
2023-03-31T09:01:54.803Z,2.13
2023-03-31T09:04:59.122Z,2.30
2023-03-31T09:07:28.535Z,2.33
2023-03-31T09:10:21.423Z,1.70
2023-03-31T09:13:02.844Z,1.90
2023-03-31T09:15:32.747Z,2.00
2023-03-31T09:18:07.405Z,1.40
2023-03-31T09:20:41.046Z,1.50
2023-03-31T09:23:32.793Z,1.60
2023-03-31T09:26:02.666Z,1.50
2023-03-31T09:28:39.840Z,1.70
2023-03-31T09:31:19.801Z,1.80
2023-03-31T09:33:48.182Z,1.70
2023-03-31T09:36:17.744Z,1.50
2023-03-31T09:38:47.060Z,2.10
2023-03-31T09:41:16.714Z,1.40
2023-03-31T09:43:46.292Z,1.60
2023-03-31T09:46:26.448Z,1.40
2023-03-31T09:49:06.278Z,1.67
2023-03-31T09:51:37.332Z,1.70
2023-03-31T09:54:22.362Z,1.67
2023-03-31T09:56:53.762Z,1.53
2023-03-31T09:59:21.773Z,1.43
2023-03-31T10:01:57.016Z,1.53
2023-03-31T10:04:27.636Z,1.63
2023-03-31T10:06:55.877Z,1.97
2023-03-31T10:09:27.528Z,1.80
2023-03-31T10:12:07.952Z,2.13
2023-03-31T10:15:02.188Z,1.73
2023-03-31T10:17:29.285Z,1.13
2023-03-31T10:20:06.396Z,2.07
2023-03-31T10:22:33.280Z,1.50
2023-03-31T10:25:29.221Z,1.77
2023-03-31T10:27:57.275Z,1.50
2023-03-31T10:30:28.836Z,1.60
2023-03-31T10:32:55.487Z,1.40
2023-03-31T10:35:50.145Z,1.50
2023-03-31T10:38:27.880Z,1.50
2023-03-31T10:40:59.132Z,1.47
2023-03-31T10:43:29.504Z,1.77
2023-03-31T10:46:00.767Z,1.50
2023-03-31T10:48:31.395Z,1.63
2023-03-31T10:51:19.089Z,1.60
2023-03-31T10:53:48.485Z,2.03
2023-03-31T10:56:36.650Z,2.00
2023-03-31T10:59:29.857Z,1.47
2023-03-31T11:02:33.826Z,1.73
2023-03-31T11:05:00.926Z,1.40
2023-03-31T11:07:50.969Z,1.63
2023-03-31T11:10:43.239Z,1.60
2023-03-31T11:13:33.858Z,1.70
2023-03-31T11:16:25.311Z,1.70
2023-03-31T11:18:54.542Z,1.47
2023-03-31T11:21:36.625Z,1.77
2023-03-31T11:24:19.910Z,1.43
2023-03-31T11:27:00.865Z,1.53
2023-03-31T11:29:38.298Z,1.80
2023-03-31T11:32:14.723Z,1.60
2023-03-31T11:35:09.386Z,1.57
2023-03-31T11:37:35.897Z,1.60
2023-03-31T11:40:22.019Z,1.67
2023-03-31T11:42:55.496Z,1.30
2023-03-31T11:45:28.526Z,1.70
2023-03-31T11:48:04.328Z,1.50
2023-03-31T11:50:40.273Z,1.03
2023-03-31T11:53:16.492Z,2.10
2023-03-31T11:55:47.074Z,3.37
2023-03-31T11:58:21.819Z,2.23
2023-03-31T12:00:50.693Z,1.67
2023-03-31T12:03:29.432Z,1.77
2023-03-31T12:06:02.729Z,1.50
2023-03-31T12:08:41.855Z,2.40
2023-03-31T12:11:20.190Z,1.80
2023-03-31T12:13:56.937Z,1.90
2023-03-31T12:16:32.404Z,1.60
2023-03-31T12:19:08.022Z,1.27
2023-03-31T12:21:38.541Z,1.67
2023-03-31T12:24:07.179Z,1.93
2023-03-31T12:26:53.062Z,1.43
2023-03-31T12:29:52.220Z,1.87
2023-03-31T12:32:24.056Z,2.10
2023-03-31T12:35:25.092Z,1.57
2023-03-31T12:37:57.918Z,1.57
2023-03-31T12:40:42.622Z,1.53
2023-03-31T12:43:35.200Z,1.70
2023-03-31T12:46:07.557Z,1.50
2023-03-31T12:48:54.866Z,1.60
2023-03-31T12:51:37.009Z,1.37
2023-03-31T12:54:18.697Z,1.23
2023-03-31T12:57:00.916Z,2.60
2023-03-31T12:59:35.613Z,2.40
2023-03-31T13:02:21.684Z,2.00
2023-03-31T13:04:49.720Z,1.43
2023-03-31T13:07:29.049Z,2.07
2023-03-31T13:10:17.193Z,1.93
2023-03-31T13:13:02.756Z,1.90
2023-03-31T13:15:30.761Z,1.70
2023-03-31T13:18:03.916Z,1.30
2023-03-31T13:20:30.713Z,1.67
2023-03-31T13:23:22.572Z,1.90
2023-03-31T13:25:51.295Z,1.63
2023-03-31T13:28:24.412Z,1.90
2023-03-31T13:30:52.645Z,1.70
2023-03-31T13:33:58.093Z,1.40
2023-03-31T13:36:24.981Z,1.10
2023-03-31T13:39:11.091Z,1.83
2023-03-31T13:41:46.296Z,2.17
2023-03-31T13:44:35.576Z,1.53
2023-03-31T13:47:21.428Z,1.63
2023-03-31T13:50:32.814Z,1.67
2023-03-31T13:52:59.439Z,1.60
2023-03-31T13:55:44.442Z,1.70
2023-03-31T13:58:25.528Z,2.10
2023-03-31T14:01:30.682Z,1.83
2023-03-31T14:04:09.335Z,1.90
2023-03-31T14:06:41.907Z,1.87
2023-03-31T14:09:13.669Z,2.37
2023-03-31T14:11:40.363Z,1.47
2023-03-31T14:14:11.449Z,1.80
2023-03-31T14:16:41.731Z,1.97
2023-03-31T14:19:27.410Z,1.93
2023-03-31T14:22:09.052Z,1.77
2023-03-31T14:24:49.396Z,2.47
2023-03-31T14:27:30.887Z,1.87
2023-03-31T14:30:13.086Z,1.73
2023-03-31T14:32:57.804Z,1.67
2023-03-31T14:35:46.914Z,1.63
2023-03-31T14:38:19.251Z,1.77
2023-03-31T14:40:54.530Z,1.53
2023-03-31T14:43:25.007Z,1.83
2023-03-31T14:46:06.038Z,2.20
2023-03-31T14:48:45.310Z,2.83
2023-03-31T14:51:15.868Z,1.80
2023-03-31T14:53:43.519Z,2.20
2023-03-31T14:56:14.838Z,2.33
2023-03-31T14:58:47.456Z,2.47
2023-03-31T15:01:23.910Z,1.90
2023-03-31T15:03:53.210Z,2.63
2023-03-31T15:06:19.939Z,1.87
2023-03-31T15:08:46.831Z,1.93
2023-03-31T15:11:19.467Z,3.03
2023-03-31T15:14:00.936Z,2.10
2023-03-31T15:16:44.310Z,1.77
2023-03-31T15:19:23.477Z,1.80
2023-03-31T15:22:14.212Z,2.10
2023-03-31T15:24:41.015Z,1.83
2023-03-31T15:27:20.550Z,1.70
2023-03-31T15:29:53.342Z,1.83
2023-03-31T15:32:36.558Z,2.20
2023-03-31T15:35:18.732Z,2.33
2023-03-31T15:37:48.802Z,2.40
2023-03-31T15:40:31.449Z,2.47
2023-03-31T15:43:13.407Z,2.10
2023-03-31T15:45:50.246Z,1.70
2023-03-31T15:48:24.124Z,1.97
2023-03-31T15:50:51.901Z,2.50
2023-03-31T15:53:28.917Z,2.17
2023-03-31T15:55:59.749Z,2.30
2023-03-31T15:58:53.046Z,2.53
2023-03-31T16:01:20.925Z,2.57
2023-03-31T16:03:47.979Z,3.50
2023-03-31T16:06:29.220Z,2.13
2023-03-31T16:09:07.119Z,2.27
2023-03-31T16:11:37.069Z,2.57
2023-03-31T16:14:27.410Z,2.20
2023-03-31T16:17:02.336Z,1.83
2023-03-31T16:19:39.360Z,2.10
2023-03-31T16:22:06.317Z,1.93
2023-03-31T16:24:35.370Z,3.00
2023-03-31T16:27:06.902Z,2.70
2023-03-31T16:29:34.835Z,3.47
2023-03-31T16:32:20.991Z,2.80
2023-03-31T16:34:59.032Z,4.00
2023-03-31T16:37:26.318Z,3.47
2023-03-31T16:39:53.128Z,3.77
2023-03-31T16:42:20.850Z,5.17
2023-03-31T16:44:59.957Z,4.93
2023-03-31T16:50:18.010Z,3.67
2023-03-31T16:52:45.458Z,3.50
2023-03-31T16:55:12.307Z,3.30
2023-03-31T16:57:38.935Z,3.80
2023-03-31T17:00:06.196Z,3.00
2023-03-31T17:02:32.897Z,3.77
2023-03-31T17:07:46.173Z,3.33
2023-03-31T17:10:13.498Z,3.50
2023-03-31T17:12:40.659Z,3.77
2023-03-31T17:15:08.077Z,3.60
2023-03-31T17:17:34.809Z,4.53
2023-03-31T17:20:02.294Z,7.73
2023-03-31T17:22:28.894Z,7.40
2023-03-31T17:24:58.462Z,8.30
2023-03-31T17:27:26.141Z,6.70
2023-03-31T17:29:53.140Z,5.27
2023-03-31T17:32:20.483Z,6.63
2023-03-31T17:34:50.543Z,5.17
2023-03-31T17:37:18.587Z,5.27
2023-03-31T17:39:45.830Z,5.40
2023-03-31T17:42:13.385Z,5.00
2023-03-31T17:44:40.758Z,5.60
2023-03-31T17:47:07.359Z,4.90
2023-03-31T17:49:34.094Z,5.43
2023-03-31T17:52:00.977Z,5.40
2023-03-31T17:54:27.601Z,4.17
2023-03-31T17:56:54.523Z,4.40
2023-03-31T17:59:22.207Z,3.30
2023-03-31T18:01:49.062Z,3.17
2023-03-31T18:04:16.276Z,3.30
2023-03-31T18:06:44.759Z,3.67
2023-03-31T18:09:12.008Z,3.70
2023-03-31T18:11:38.835Z,4.40
2023-03-31T18:14:06.431Z,3.23
2023-03-31T18:16:33.709Z,3.27
2023-03-31T18:19:00.782Z,3.60
2023-03-31T18:21:27.795Z,3.17
2023-03-31T18:23:55.264Z,3.63
2023-03-31T18:26:24.247Z,4.83
2023-03-31T18:28:52.412Z,5.33
2023-03-31T18:31:21.370Z,3.93
2023-03-31T18:33:48.517Z,4.00
2023-03-31T18:36:19.753Z,3.80
2023-03-31T18:38:47.866Z,4.47
2023-03-31T18:41:14.849Z,5.23
2023-03-31T18:43:41.961Z,5.40
2023-03-31T18:46:08.844Z,4.20
2023-03-31T18:48:35.614Z,3.53
2023-03-31T18:51:02.713Z,2.93
2023-03-31T18:53:30.226Z,2.97
2023-03-31T18:55:58.926Z,3.23
2023-03-31T18:58:28.812Z,2.90
2023-03-31T19:00:56.561Z,2.83
2023-03-31T19:03:23.839Z,2.50
2023-03-31T19:05:50.627Z,3.50
2023-03-31T19:08:17.488Z,2.80
2023-03-31T19:10:44.160Z,2.90
2023-03-31T19:13:15.967Z,2.50
2023-03-31T19:15:42.959Z,2.97
2023-03-31T19:18:14.753Z,2.90
2023-03-31T19:20:41.479Z,2.33
2023-03-31T19:23:08.540Z,2.37
2023-03-31T19:25:35.283Z,2.90
2023-03-31T19:28:02.358Z,5.77
2023-03-31T19:30:29.278Z,3.33
2023-03-31T19:32:56.130Z,3.20
2023-03-31T19:35:23.409Z,3.90
2023-03-31T19:37:51.136Z,3.20
2023-03-31T19:40:17.797Z,3.93
2023-03-31T19:42:44.506Z,3.57
2023-03-31T19:45:11.640Z,3.57
2023-03-31T19:47:38.554Z,4.93
2023-03-31T19:50:07.354Z,3.77
2023-03-31T19:52:34.166Z,3.80
2023-03-31T19:55:00.809Z,4.00
2023-03-31T19:57:27.825Z,3.90
2023-03-31T19:59:54.491Z,6.00
2023-03-31T20:02:21.372Z,6.50
2023-03-31T20:04:48.220Z,5.83
2023-03-31T20:07:14.892Z,8.37
2023-03-31T20:09:42.412Z,7.53
2023-03-31T20:12:09.010Z,7.20
2023-03-31T20:14:35.600Z,7.20
2023-03-31T20:17:03.306Z,7.27
2023-03-31T20:19:29.991Z,7.07
2023-03-31T20:21:57.973Z,6.90
2023-03-31T20:24:24.951Z,7.17
2023-03-31T20:26:52.048Z,7.40
2023-03-31T20:29:18.993Z,7.87
2023-03-31T20:31:46.119Z,7.00
2023-03-31T20:34:15.001Z,7.77
2023-03-31T20:36:43.932Z,6.60
2023-03-31T20:39:13.227Z,5.53
2023-03-31T20:41:40.221Z,6.00
2023-03-31T20:44:11.401Z,5.87
2023-03-31T20:46:40.997Z,5.40
2023-03-31T20:49:08.314Z,5.73
2023-03-31T20:51:39.805Z,5.40
2023-03-31T20:54:07.777Z,5.40
2023-03-31T20:56:37.910Z,5.17
2023-03-31T20:59:08.744Z,5.80
2023-03-31T21:01:36.837Z,4.93
2023-03-31T21:04:05.872Z,6.00
2023-03-31T21:06:38.545Z,5.30
2023-03-31T21:09:05.898Z,4.90
2023-03-31T21:11:33.109Z,5.70
2023-03-31T21:14:00.420Z,5.10
2023-03-31T21:16:27.280Z,5.13
2023-03-31T21:18:58.610Z,5.27
2023-03-31T21:21:26.845Z,4.87
2023-03-31T21:23:54.421Z,4.53
2023-03-31T21:26:22.049Z,4.53
2023-03-31T21:28:54.371Z,4.83
2023-03-31T21:31:24.253Z,5.07
2023-03-31T21:33:52.276Z,4.40
2023-03-31T21:36:22.758Z,4.83
2023-03-31T21:38:52.093Z,4.80
2023-03-31T21:41:22.655Z,4.80
2023-03-31T21:43:51.342Z,5.33
2023-03-31T21:46:20.370Z,4.73
2023-03-31T21:48:50.736Z,4.53
2023-03-31T21:51:19.071Z,3.93
2023-03-31T21:53:46.107Z,3.57
2023-03-31T21:56:12.925Z,5.70
2023-03-31T21:58:39.640Z,6.43
2023-03-31T22:01:06.586Z,6.00
2023-03-31T22:03:34.586Z,6.27
2023-03-31T22:06:03.721Z,5.40
2023-03-31T22:08:31.664Z,5.13
2023-03-31T22:11:00.573Z,5.70
2023-03-31T22:13:29.195Z,5.37
2023-03-31T22:15:56.413Z,5.23
2023-03-31T22:18:23.282Z,3.33
2023-03-31T22:20:50.840Z,6.43
2023-03-31T22:23:18.182Z,6.47
2023-03-31T22:25:44.835Z,6.37
2023-03-31T22:28:12.677Z,6.27
2023-03-31T22:30:39.546Z,6.73
2023-03-31T22:33:06.236Z,6.20
2023-03-31T22:35:33.194Z,6.17
2023-03-31T22:38:00.046Z,6.53
2023-03-31T22:40:29.110Z,5.57
2023-03-31T22:42:57.483Z,4.93
2023-03-31T22:45:24.213Z,5.30
2023-03-31T22:47:51.226Z,6.13
2023-03-31T22:50:18.008Z,5.47
2023-03-31T22:52:45.518Z,5.40
2023-03-31T22:55:12.178Z,5.47
2023-03-31T22:57:39.306Z,5.50
2023-03-31T23:00:06.595Z,4.00
2023-03-31T23:02:33.386Z,3.53
2023-03-31T23:05:00.212Z,3.43
2023-03-31T23:07:27.628Z,3.67
2023-03-31T23:09:54.212Z,3.50
2023-03-31T23:12:20.902Z,3.70
2023-03-31T23:14:47.474Z,3.80
2023-03-31T23:17:14.202Z,3.77
2023-03-31T23:19:40.854Z,3.10
2023-03-31T23:22:07.472Z,3.60
2023-03-31T23:24:34.173Z,3.80
2023-03-31T23:27:00.778Z,3.77
2023-03-31T23:29:28.156Z,3.50
2023-03-31T23:31:54.907Z,3.20
2023-03-31T23:34:21.596Z,4.00
2023-03-31T23:36:48.545Z,4.57
2023-03-31T23:39:15.372Z,3.93
2023-03-31T23:41:42.142Z,4.30
2023-03-31T23:44:08.884Z,4.57
2023-03-31T23:46:37.800Z,3.33
2023-03-31T23:49:05.042Z,3.10
2023-03-31T23:51:31.630Z,3.13
2023-03-31T23:53:58.255Z,3.07
2023-03-31T23:56:25.442Z,3.03
2023-03-31T23:58:52.127Z,2.40
